Time;durP1;ratioP1;P1;durP2;ratioP2;P2;SDS_P1;SDS_P2;PMS_P1;PMS_P2;Temp;Humidity;BMP_temperature;BMP_pressure;BME280_temperature;BME280_humidity;BME280_pressure;Samples;Min_cycle;Max_cycle;Signal;HPM_P1;HPM_P2
2021/12/18 00:01:44;;;;;;;3.95;1.75;;;;;;;9.58;40.77;101519.75;144992;589;6002;-85
2021/12/18 00:04:11;;;;;;;3.58;2.10;;;;;;;9.52;41.19;101522.06;144992;581;6002;-83
2021/12/18 00:06:38;;;;;;;3.30;1.65;;;;;;;9.53;41.03;101524.72;144992;602;6002;-85
2021/12/18 00:09:04;;;;;;;2.60;1.90;;;;;;;9.70;41.11;101532.37;144992;585;6002;-86
2021/12/18 00:11:31;;;;;;;3.65;1.77;;;;;;;9.81;40.73;101525.97;144992;594;6002;-86
2021/12/18 00:13:58;;;;;;;2.62;1.90;;;;;;;9.73;40.66;101529.94;144992;563;6002;-85
2021/12/18 00:16:24;;;;;;;2.85;1.87;;;;;;;9.76;41.33;101537.84;144992;582;6002;-84
2021/12/18 00:18:53;;;;;;;3.05;1.90;;;;;;;9.82;41.57;101521.72;144992;713;6002;-83
2021/12/18 00:21:21;;;;;;;2.30;1.42;;;;;;;9.84;41.11;101518.34;144992;572;6002;-85
2021/12/18 00:23:47;;;;;;;4.50;1.80;;;;;;;9.76;41.31;101528.37;144992;594;6002;-85
2021/12/18 00:26:14;;;;;;;2.97;1.70;;;;;;;9.68;41.34;101521.06;144992;656;6003;-85
2021/12/18 00:28:55;;;;;;;4.10;1.90;;;;;;;9.58;41.77;101538.78;144992;652;6002;-84
2021/12/18 00:31:57;;;;;;;;;;;;;;;;;;;;;
2021/12/18 00:34:39;;;;;;;2.25;1.58;;;;;;;9.80;40.54;101540.66;144992;612;6002;-86
2021/12/18 00:37:16;;;;;;;2.53;1.70;;;;;;;10.05;40.96;101521.00;144992;563;6002;-81
2021/12/18 00:39:56;;;;;;;2.92;1.60;;;;;;;9.86;41.01;101527.06;144992;578;6002;-85
2021/12/18 00:42:46;;;;;;;3.50;1.48;;;;;;;9.84;41.13;101525.25;144992;617;6002;-85
2021/12/18 00:45:14;;;;;;;2.87;1.90;;;;;;;9.94;41.70;101524.84;144992;609;6004;-85
2021/12/18 00:47:41;;;;;;;2.30;1.80;;;;;;;9.98;41.99;101529.34;144992;577;6004;-86
2021/12/18 00:50:17;;;;;;;4.82;1.90;;;;;;;9.69;43.36;101523.72;144992;592;6004;-84
2021/12/18 00:52:46;;;;;;;3.20;1.80;;;;;;;9.59;43.73;101513.72;144992;605;6004;-84
2021/12/18 00:55:12;;;;;;;2.97;1.85;;;;;;;9.49;44.36;101507.25;144992;599;6005;-85
2021/12/18 00:57:39;;;;;;;3.40;1.98;;;;;;;9.54;44.98;101504.87;144992;568;6004;-84
2021/12/18 01:00:08;;;;;;;3.58;1.80;;;;;;;9.52;44.92;101496.12;144992;587;6004;-85
2021/12/18 01:02:37;;;;;;;3.50;1.98;;;;;;;9.43;46.07;101507.84;144992;572;6005;-85
2021/12/18 01:05:08;;;;;;;3.70;2.17;;;;;;;9.37;46.73;101506.66;144992;562;6004;-84
2021/12/18 01:07:38;;;;;;;3.78;2.00;;;;;;;9.23;47.17;101501.72;144992;609;6004;-83
2021/12/18 01:12:58;;;;;;;3.37;1.87;;;;;;;9.16;48.25;101498.75;144992;609;6002;-83
2021/12/18 01:15:34;;;;;;;2.83;1.90;;;;;;;9.13;49.40;101491.75;144992;610;6002;-83
2021/12/18 01:23:30;;;;;;;3.40;1.67;;;;;;;8.94;50.61;101481.28;144992;671;6002;-85
2021/12/18 01:25:58;;;;;;;3.53;2.00;;;;;;;8.92;50.36;101485.50;144992;629;6002;-87
2021/12/18 01:28:25;;;;;;;3.65;1.80;;;;;;;8.92;50.22;101488.97;144992;622;6002;-85
2021/12/18 01:30:52;;;;;;;4.05;1.70;;;;;;;8.94;48.92;101483.88;144992;574;6002;-86
2021/12/18 01:33:19;;;;;;;2.45;1.70;;;;;;;8.99;48.49;101491.06;144992;583;6002;-87
2021/12/18 01:35:46;;;;;;;3.25;1.83;;;;;;;9.07;48.08;101474.19;144992;666;6002;-85
2021/12/18 01:38:13;;;;;;;4.45;1.90;;;;;;;9.13;47.56;101470.13;144992;564;6002;-83
2021/12/18 01:40:40;;;;;;;3.58;1.83;;;;;;;8.98;47.85;101460.78;144992;634;6002;-85
2021/12/18 01:44:14;;;;;;;5.97;2.20;;;;;;;9.02;48.64;101457.56;144992;708;6002;-83
2021/12/18 01:51:59;;;;;;;3.80;1.62;;;;;;;8.93;47.08;101440.69;144992;624;6004;-85
2021/12/18 01:54:25;;;;;;;2.65;1.80;;;;;;;8.86;48.08;101439.47;144992;592;6004;-85
2021/12/18 01:56:51;;;;;;;4.22;1.83;;;;;;;8.86;49.81;101444.66;144992;566;6004;-82
2021/12/18 01:59:35;;;;;;;2.58;1.80;;;;;;;8.79;49.69;101452.97;144992;597;6004;-83
2021/12/18 02:02:03;;;;;;;3.00;1.42;;;;;;;8.74;49.78;101420.78;144992;567;6005;-82
2021/12/18 02:04:29;;;;;;;3.67;1.80;;;;;;;8.69;50.63;101423.16;144993;568;6000;-84
2021/12/18 02:07:01;;;;;;;2.80;1.85;;;;;;;8.72;51.23;101420.72;144993;597;6002;-84
2021/12/18 02:09:42;;;;;;;3.40;1.75;;;;;;;8.69;50.55;101425.75;144993;593;6002;-81
2021/12/18 02:12:09;;;;;;;4.07;2.00;;;;;;;8.65;50.66;101424.72;144993;591;6002;-83
2021/12/18 02:19:34;;;;;;;5.32;2.00;;;;;;;8.63;51.83;101412.50;144993;609;6002;-82
2021/12/18 02:22:58;;;;;;;3.05;2.00;;;;;;;8.63;52.45;101453.91;144993;575;6000;-86
2021/12/18 02:25:25;;;;;;;2.97;2.12;;;;;;;8.71;52.16;101466.41;144993;587;6003;-84
2021/12/18 02:27:55;;;;;;;3.78;2.05;;;;;;;8.68;52.62;101486.97;144992;564;6002;-84
2021/12/18 02:30:22;;;;;;;2.40;1.85;;;;;;;8.65;53.43;101497.19;144993;640;6002;-85
2021/12/18 02:32:50;;;;;;;2.95;1.90;;;;;;;8.65;56.80;101502.38;144993;581;6002;-84
2021/12/18 02:35:28;;;;;;;4.07;1.87;;;;;;;8.96;55.35;101493.50;144992;580;6002;-86
2021/12/18 02:38:29;;;;;;;2.20;1.90;;;;;;;9.09;53.04;101495.00;144992;590;6002;-85
2021/12/18 02:41:27;;;;;;;1.85;1.35;;;;;;;9.03;56.94;101512.81;144992;570;6000;-84
2021/12/18 02:43:46;;;;;;;3.67;1.30;;;;;;;9.22;52.63;101509.41;144992;591;6002;-86
2021/12/18 02:46:17;;;;;;;1.80;1.12;;;;;;;9.22;55.16;101514.59;144992;651;6002;-85
2021/12/18 02:48:43;;;;;;;2.12;0.90;;;;;;;9.03;58.28;101518.00;144992;570;6002;-83
2021/12/18 02:51:11;;;;;;;1.42;0.55;;;;;;;8.65;59.98;101517.91;144993;667;6002;-85
2021/12/18 02:53:41;;;;;;;1.10;0.47;;;;;;;8.51;60.14;101511.09;144993;599;6002;-82
2021/12/18 02:56:10;;;;;;;1.00;0.75;;;;;;;8.59;59.30;101516.66;144993;617;6002;-87
2021/12/18 02:58:42;;;;;;;2.58;0.60;;;;;;;8.62;57.50;101504.81;144993;628;6002;-86
2021/12/18 03:01:11;;;;;;;1.05;0.50;;;;;;;8.55;59.51;101514.75;144993;589;6002;-85
2021/12/18 03:03:40;;;;;;;1.10;0.57;;;;;;;8.84;56.28;101506.72;144993;566;5994;-86
2021/12/18 03:09:15;;;;;;;1.27;0.60;;;;;;;8.56;59.33;101514.84;144993;666;6000;-85
2021/12/18 03:20:57;;;;;;;1.75;0.70;;;;;;;8.68;56.53;101499.03;144993;600;6000;-83
2021/12/18 03:25:45;;;;;;;0.35;0.20;;;;;;;8.35;54.74;101501.63;144993;656;6004;-86
2021/12/18 03:28:13;;;;;;;0.20;0.20;;;;;;;8.34;55.24;101497.28;144993;596;6002;-82
2021/12/18 03:30:39;;;;;;;0.50;0.10;;;;;;;8.17;56.28;101488.66;144993;585;6002;-83
2021/12/18 03:33:06;;;;;;;0.20;0.20;;;;;;;8.12;57.35;101487.53;144992;743;6002;-85
2021/12/18 03:35:32;;;;;;;2.17;0.30;;;;;;;8.13;55.96;101525.53;144993;599;6002;-85
2021/12/18 03:37:59;;;;;;;0.57;0.30;;;;;;;8.07;55.22;101538.13;144993;614;6002;-84
2021/12/18 03:40:26;;;;;;;1.90;0.30;;;;;;;8.19;57.22;101554.28;144993;623;6002;-87
2021/12/18 03:42:53;;;;;;;0.40;0.40;;;;;;;8.12;59.37;101559.94;144993;581;6002;-85
2021/12/18 03:45:21;;;;;;;1.85;0.68;;;;;;;8.12;59.51;101563.41;144994;604;5002;-85
2021/12/18 03:47:49;;;;;;;0.57;0.50;;;;;;;7.89;62.40;101557.03;144994;655;5002;-83
2021/12/18 03:50:15;;;;;;;0.30;0.30;;;;;;;7.89;60.72;101561.28;144994;589;5002;-85
2021/12/18 03:52:42;;;;;;;0.43;0.30;;;;;;;7.60;64.96;101558.91;144994;629;5002;-84
2021/12/18 03:55:09;;;;;;;0.70;0.50;;;;;;;7.28;66.86;101562.25;144994;607;5002;-84
2021/12/18 03:57:36;;;;;;;0.50;0.40;;;;;;;7.40;66.95;101544.88;144994;581;5002;-85
2021/12/18 04:00:06;;;;;;;1.35;0.60;;;;;;;7.62;62.74;101535.75;144994;598;5002;-85
2021/12/18 04:02:32;;;;;;;0.95;0.50;;;;;;;7.34;68.09;101544.53;144994;572;5002;-83
2021/12/18 04:04:59;;;;;;;0.65;0.60;;;;;;;7.31;68.11;101530.56;144994;565;5002;-85
2021/12/18 04:07:25;;;;;;;0.82;0.82;;;;;;;7.41;67.32;101531.16;144994;619;5002;-84
2021/12/18 04:09:53;;;;;;;1.00;0.80;;;;;;;7.25;68.25;101544.00;144994;602;5002;-85
2021/12/18 04:12:22;;;;;;;1.12;0.77;;;;;;;7.52;64.28;101543.78;144994;605;5002;-84
2021/12/18 04:14:49;;;;;;;1.33;0.90;;;;;;;7.84;62.47;101540.34;144994;607;5002;-84
2021/12/18 04:17:15;;;;;;;1.75;0.93;;;;;;;7.55;67.28;101534.50;144994;575;5002;-86
2021/12/18 04:19:42;;;;;;;1.48;0.95;;;;;;;7.98;62.29;101541.09;144994;589;5002;-84
2021/12/18 04:22:08;;;;;;;1.42;0.80;;;;;;;8.21;62.06;101560.44;144994;579;5002;-85
2021/12/18 04:24:35;;;;;;;1.20;1.00;;;;;;;8.01;65.11;101540.38;144994;637;5002;-85
2021/12/18 04:27:01;;;;;;;1.40;0.93;;;;;;;8.31;61.30;101536.81;144994;692;5002;-86
2021/12/18 04:29:28;;;;;;;1.20;1.00;;;;;;;8.15;62.06;101545.47;144994;704;5002;-84
2021/12/18 04:31:56;;;;;;;2.62;1.10;;;;;;;8.41;61.11;101534.72;144994;585;5003;-86
2021/12/18 04:34:22;;;;;;;1.70;1.12;;;;;;;8.28;62.68;101536.66;144994;579;5002;-84
2021/12/18 04:36:50;;;;;;;2.00;1.35;;;;;;;8.40;61.44;101520.00;144993;614;5002;-84
2021/12/18 04:39:17;;;;;;;2.72;1.65;;;;;;;8.43;64.30;101515.91;144994;571;5003;-83
2021/12/18 04:41:49;;;;;;;2.33;1.40;;;;;;;8.43;64.92;101515.91;144994;577;5002;-85
2021/12/18 04:44:17;;;;;;;1.90;1.62;;;;;;;8.33;65.70;101505.84;144994;570;5002;-85
2021/12/18 04:46:43;;;;;;;3.90;1.77;;;;;;;8.61;60.71;101510.78;144994;603;5002;-88
2021/12/18 04:49:10;;;;;;;2.83;1.50;;;;;;;8.39;65.78;101518.22;144994;686;5002;-85
2021/12/18 04:51:36;;;;;;;3.00;1.50;;;;;;;8.28;63.68;101490.09;144994;613;5002;-83
2021/12/18 04:54:04;;;;;;;2.65;1.15;;;;;;;7.85;65.06;101489.56;144994;608;5002;-83
2021/12/18 04:56:31;;;;;;;2.17;1.40;;;;;;;7.94;65.15;101513.31;144994;615;5002;-85
2021/12/18 04:58:58;;;;;;;1.60;1.10;;;;;;;8.20;63.15;101495.69;144994;566;5002;-85
2021/12/18 05:01:26;;;;;;;1.58;1.30;;;;;;;8.14;63.43;101507.50;144994;569;5002;-87
2021/12/18 05:03:53;;;;;;;1.58;1.20;;;;;;;8.11;63.68;101517.69;144994;575;5002;-86
2021/12/18 05:06:19;;;;;;;1.87;1.33;;;;;;;7.99;65.67;101524.78;144994;636;5002;-85
2021/12/18 05:08:46;;;;;;;1.70;1.27;;;;;;;8.46;61.62;101504.81;144994;591;5002;-85
2021/12/18 05:11:12;;;;;;;1.75;1.10;;;;;;;8.15;57.81;101474.75;144994;580;5002;-84
2021/12/18 05:13:39;;;;;;;1.48;0.85;;;;;;;7.95;59.92;101521.16;144994;611;5002;-86
2021/12/18 05:16:05;;;;;;;1.40;1.25;;;;;;;7.81;62.13;101515.25;144994;587;5002;-85
2021/12/18 05:18:32;;;;;;;1.75;1.20;;;;;;;7.72;63.40;101537.12;144994;589;5002;-86
2021/12/18 05:20:58;;;;;;;2.58;1.20;;;;;;;7.85;63.38;101524.06;144994;611;5002;-85
2021/12/18 05:23:25;;;;;;;1.90;0.98;;;;;;;7.68;61.05;101535.16;144994;589;5002;-83
2021/12/18 05:25:51;;;;;;;1.25;1.05;;;;;;;7.93;60.07;101516.72;144994;567;5002;-83
2021/12/18 05:28:18;;;;;;;2.42;1.37;;;;;;;7.95;59.98;101531.50;144994;588;5002;-83
2021/12/18 05:30:49;;;;;;;1.80;1.20;;;;;;;7.99;58.66;101533.44;144994;666;5002;-84
2021/12/18 05:33:15;;;;;;;2.37;1.20;;;;;;;8.40;58.29;101520.00;144994;607;5002;-85
2021/12/18 05:35:42;;;;;;;1.48;0.90;;;;;;;8.11;57.45;101514.19;144994;608;5002;-84
2021/12/18 05:38:08;;;;;;;2.00;1.08;;;;;;;7.95;59.85;101516.00;144994;572;5002;-84
2021/12/18 05:40:37;;;;;;;1.65;1.00;;;;;;;7.88;58.98;101528.50;144994;617;5002;-86
2021/12/18 05:43:07;;;;;;;1.87;1.05;;;;;;;7.96;58.72;101537.56;144994;600;5002;-84
2021/12/18 05:45:34;;;;;;;1.87;1.30;;;;;;;8.03;59.24;101520.66;144994;577;5002;-83
2021/12/18 05:48:00;;;;;;;2.17;1.50;;;;;;;7.95;61.27;101534.09;144994;597;5002;-83
2021/12/18 05:50:28;;;;;;;5.32;2.00;;;;;;;7.74;62.73;101549.31;144994;603;5002;-84
2021/12/18 05:52:58;;;;;;;3.90;1.90;;;;;;;7.85;62.63;101533.50;144994;696;5002;-84
2021/12/18 05:55:26;;;;;;;3.72;2.30;;;;;;;7.88;61.82;101529.38;144994;572;5002;-86
2021/12/18 05:57:53;;;;;;;4.62;2.12;;;;;;;7.44;66.22;101513.25;144994;569;5002;-84
2021/12/18 06:00:20;;;;;;;4.95;2.25;;;;;;;7.33;64.89;101534.13;144994;569;5002;-84
2021/12/18 06:02:47;;;;;;;2.60;1.67;;;;;;;7.45;62.53;101542.56;144994;595;5002;-82
2021/12/18 06:05:14;;;;;;;3.40;2.00;;;;;;;7.45;66.00;101550.31;144994;607;5002;-83
2021/12/18 06:07:55;;;;;;;4.95;2.10;;;;;;;7.55;65.64;101539.66;144994;585;5002;-87
2021/12/18 06:10:28;;;;;;;4.45;2.72;;;;;;;7.49;64.10;101543.59;144994;601;5002;-83
2021/12/18 06:12:57;;;;;;;4.35;2.80;;;;;;;7.45;64.33;101543.44;144994;706;5002;-85
2021/12/18 06:15:23;;;;;;;4.32;2.90;;;;;;;7.57;63.55;101527.75;144994;677;5002;-84
2021/12/18 06:17:50;;;;;;;3.67;2.10;;;;;;;7.67;63.64;101536.88;144994;678;5002;-85
2021/12/18 06:20:17;;;;;;;2.67;1.70;;;;;;;7.53;59.75;101535.22;144994;607;5002;-82
2021/12/18 06:22:44;;;;;;;2.50;1.58;;;;;;;7.54;57.38;101524.97;144994;581;5002;-83
2021/12/18 06:25:10;;;;;;;5.12;1.60;;;;;;;7.63;58.75;101522.91;144994;654;5002;-85
2021/12/18 06:27:37;;;;;;;3.83;1.70;;;;;;;7.39;59.66;101561.16;144994;600;5002;-82
2021/12/18 06:30:05;;;;;;;2.60;1.40;;;;;;;7.61;58.60;101545.16;144993;680;5002;-86
2021/12/18 06:32:31;;;;;;;2.65;1.67;;;;;;;7.82;58.15;101534.22;144994;619;5002;-85
2021/12/18 06:34:58;;;;;;;2.40;1.40;;;;;;;7.72;57.62;101548.34;144994;613;5002;-83
2021/12/18 06:37:26;;;;;;;2.85;1.50;;;;;;;7.67;58.41;101546.31;144994;596;5002;-85
2021/12/18 06:39:53;;;;;;;5.07;2.05;;;;;;;7.78;58.85;101550.38;144994;628;5002;-86
2021/12/18 06:42:20;;;;;;;2.03;1.52;;;;;;;7.95;58.56;101570.28;144994;595;5002;-82
2021/12/18 06:44:46;;;;;;;2.10;1.30;;;;;;;7.86;55.02;101549.09;144994;615;5002;-84
2021/12/18 06:47:13;;;;;;;1.83;1.25;;;;;;;7.96;55.04;101553.06;144994;632;5002;-84
2021/12/18 06:49:39;;;;;;;4.32;1.60;;;;;;;8.12;56.22;101566.00;144994;678;5002;-84
2021/12/18 06:52:07;;;;;;;4.55;1.58;;;;;;;8.23;57.10;101552.75;144994;581;5002;-84
2021/12/18 06:54:33;;;;;;;2.22;1.40;;;;;;;8.01;57.40;101545.56;144994;564;5002;-86
2021/12/18 06:57:01;;;;;;;2.22;2.03;;;;;;;8.22;56.82;101558.72;144994;580;5002;-85
2021/12/18 06:59:29;;;;;;;3.87;2.08;;;;;;;8.21;58.76;101554.34;144994;591;5002;-86
2021/12/18 07:01:56;;;;;;;2.95;2.05;;;;;;;8.10;59.45;101571.91;144994;680;5002;-82
2021/12/18 07:04:24;;;;;;;2.22;1.48;;;;;;;8.12;55.94;101585.81;144994;554;5002;-81
2021/12/18 07:06:52;;;;;;;3.50;2.20;;;;;;;8.08;59.85;101595.09;144994;580;5002;-85
2021/12/18 07:09:22;;;;;;;3.30;2.30;;;;;;;7.79;63.09;101598.69;144994;675;5002;-85
2021/12/18 07:11:48;;;;;;;2.90;2.17;;;;;;;7.84;61.94;101620.50;144994;565;5002;-83
2021/12/18 07:14:15;;;;;;;2.60;1.70;;;;;;;7.82;59.43;101625.56;144994;573;5002;-83
2021/12/18 07:16:42;;;;;;;2.60;1.90;;;;;;;7.69;59.88;101636.06;144994;619;5002;-84
2021/12/18 07:19:09;;;;;;;2.50;1.70;;;;;;;7.92;59.26;101608.91;144994;602;5002;-82
2021/12/18 07:21:35;;;;;;;2.95;1.75;;;;;;;8.05;59.02;101610.47;144994;625;5002;-82
2021/12/18 07:24:03;;;;;;;1.73;1.52;;;;;;;7.84;57.12;101630.84;144994;570;5002;-82
2021/12/18 07:26:36;;;;;;;2.42;1.70;;;;;;;7.82;58.47;101648.84;144994;596;5002;-83
2021/12/18 07:29:04;;;;;;;5.50;2.25;;;;;;;7.95;59.08;101654.69;144994;563;5002;-83
2021/12/18 07:31:36;;;;;;;2.80;2.00;;;;;;;7.95;59.35;101640.09;144994;564;5002;-89
2021/12/18 07:34:03;;;;;;;3.55;2.20;;;;;;;7.87;61.38;101651.69;144994;610;5002;-83
2021/12/18 07:36:29;;;;;;;3.60;2.80;;;;;;;8.15;60.01;101661.88;144994;595;5002;-82
2021/12/18 07:38:58;;;;;;;6.70;3.50;;;;;;;7.89;63.42;101659.53;144994;574;5002;-81
2021/12/18 07:41:26;;;;;;;5.32;3.10;;;;;;;7.84;62.69;101635.12;144994;579;5002;-82
2021/12/18 07:43:58;;;;;;;3.80;2.83;;;;;;;7.83;64.14;101639.41;144994;695;5002;-83
2021/12/18 07:46:26;;;;;;;3.50;3.00;;;;;;;8.05;63.82;101651.84;144994;585;5002;-84
2021/12/18 07:48:54;;;;;;;4.57;3.15;;;;;;;8.49;60.72;101650.75;144994;593;5002;-82
2021/12/18 07:51:23;;;;;;;3.80;2.45;;;;;;;7.90;63.37;101649.28;144994;636;5002;-91
2021/12/18 07:53:50;;;;;;;4.32;3.22;;;;;;;8.27;62.79;101658.16;144994;594;5002;-82
2021/12/18 07:56:18;;;;;;;5.62;3.08;;;;;;;8.11;64.37;101674.53;144994;565;5002;-83
2021/12/18 07:58:48;;;;;;;5.10;3.50;;;;;;;8.12;64.25;101659.09;144994;686;5002;-82
2021/12/18 08:01:14;;;;;;;6.50;3.20;;;;;;;8.02;64.64;101672.34;144994;636;5002;-84
2021/12/18 08:03:40;;;;;;;5.57;3.15;;;;;;;8.00;63.35;101666.19;144994;601;5002;-85
2021/12/18 08:06:07;;;;;;;5.62;3.12;;;;;;;8.05;63.50;101671.63;144994;579;5002;-85
2021/12/18 08:08:33;;;;;;;4.05;3.15;;;;;;;8.21;64.19;101674.25;144994;614;5002;-82
2021/12/18 08:11:00;;;;;;;5.15;3.65;;;;;;;8.04;64.37;101677.59;144994;597;5002;-81
2021/12/18 08:13:27;;;;;;;4.28;3.15;;;;;;;7.68;64.53;101646.31;144994;668;5002;-81
2021/12/18 08:15:53;;;;;;;4.40;2.97;;;;;;;7.53;63.25;101656.66;144994;569;5002;-81
2021/12/18 08:18:20;;;;;;;3.30;2.60;;;;;;;7.54;63.40;101661.00;144994;608;4567;-83
2021/12/18 08:20:47;;;;;;;4.57;2.30;;;;;;;7.55;61.48;101667.97;144994;660;4572;-82
2021/12/18 08:23:13;;;;;;;2.80;2.17;;;;;;;7.53;62.48;101664.41;144994;603;4572;-80
2021/12/18 08:25:41;;;;;;;4.32;2.45;;;;;;;7.53;62.14;101647.22;144992;574;6002;-82
2021/12/18 08:28:07;;;;;;;3.75;2.45;;;;;;;7.49;61.64;101650.41;144992;591;6002;-82
2021/12/18 08:30:36;;;;;;;4.68;2.62;;;;;;;7.55;60.77;101668.84;144992;571;6002;-81
2021/12/18 08:33:04;;;;;;;3.22;2.50;;;;;;;7.66;61.81;101643.63;144992;569;6002;-82
2021/12/18 08:35:31;;;;;;;3.75;2.42;;;;;;;7.60;60.59;101630.34;144992;586;6002;-81
2021/12/18 08:38:00;;;;;;;3.70;2.10;;;;;;;7.69;60.39;101636.06;144991;657;6002;-82
2021/12/18 08:40:29;;;;;;;3.05;2.25;;;;;;;7.76;58.98;101619.19;144992;574;6002;-82
2021/12/18 08:42:56;;;;;;;4.28;2.50;;;;;;;8.03;59.11;101621.50;144991;596;6002;-83
2021/12/18 08:45:22;;;;;;;5.28;2.20;;;;;;;8.01;59.24;101592.09;144992;586;6002;-81
2021/12/18 08:47:49;;;;;;;3.97;2.90;;;;;;;8.02;56.38;101589.59;144992;575;6002;-83
2021/12/18 08:50:18;;;;;;;5.00;2.45;;;;;;;8.17;55.10;101589.53;144992;573;6002;-84
2021/12/18 08:52:46;;;;;;;5.00;2.30;;;;;;;8.19;53.56;101580.13;144992;634;6002;-80
2021/12/18 08:55:14;;;;;;;4.28;2.10;;;;;;;8.29;54.91;101574.66;144992;653;6002;-81
2021/12/18 08:57:41;;;;;;;4.60;2.47;;;;;;;8.31;54.87;101585.09;144992;582;6002;-83
2021/12/18 09:00:10;;;;;;;3.30;2.08;;;;;;;8.11;55.18;101568.50;144992;586;6002;-82
2021/12/18 09:02:40;;;;;;;3.67;2.35;;;;;;;8.17;54.75;101568.84;144992;579;6002;-82
2021/12/18 09:05:11;;;;;;;3.08;2.08;;;;;;;8.18;53.28;101571.50;144992;573;6002;-83
2021/12/18 09:07:37;;;;;;;3.50;2.33;;;;;;;8.12;53.47;101544.44;144992;649;6002;-83
2021/12/18 09:10:05;;;;;;;2.90;2.03;;;;;;;8.20;53.13;101568.13;144992;614;6002;-82
2021/12/18 09:12:33;;;;;;;3.20;2.22;;;;;;;8.16;53.57;101586.06;144992;569;6002;-83
2021/12/18 09:15:00;;;;;;;2.78;2.10;;;;;;;8.15;53.17;101557.53;144992;574;6002;-82
2021/12/18 09:17:26;;;;;;;3.08;2.00;;;;;;;8.23;53.25;101538.13;144992;573;6002;-83
2021/12/18 09:19:54;;;;;;;4.30;2.22;;;;;;;8.28;53.48;101562.53;144992;577;6002;-80
2021/12/18 09:22:20;;;;;;;3.67;2.53;;;;;;;8.40;54.79;101540.69;144992;593;6002;-80
2021/12/18 09:24:47;;;;;;;3.72;1.85;;;;;;;8.27;53.53;101550.41;144992;570;6002;-80
2021/12/18 09:27:17;;;;;;;3.40;2.33;;;;;;;8.23;53.94;101553.62;144992;604;6002;-80
2021/12/18 09:29:44;;;;;;;5.25;2.97;;;;;;;8.38;55.25;101570.78;144992;564;6002;-83
2021/12/18 09:32:11;;;;;;;6.45;3.28;;;;;;;8.31;55.33;101567.88;144992;602;6002;-82
2021/12/18 09:34:38;;;;;;;6.12;2.70;;;;;;;8.27;57.76;101565.03;144992;563;6002;-80
2021/12/18 09:37:05;;;;;;;5.35;2.70;;;;;;;8.34;57.00;101565.44;144992;565;6002;-81
2021/12/18 09:39:31;;;;;;;3.28;2.05;;;;;;;8.25;55.59;101575.28;144992;582;6002;-81
2021/12/18 09:41:58;;;;;;;3.85;2.00;;;;;;;8.16;55.14;101562.78;144992;585;6002;-82
2021/12/18 09:44:29;;;;;;;3.20;1.92;;;;;;;8.12;55.73;101581.53;144992;654;6002;-83
2021/12/18 09:46:57;;;;;;;3.53;2.42;;;;;;;8.14;56.34;101585.09;144992;579;6002;-83
2021/12/18 09:49:24;;;;;;;3.80;2.50;;;;;;;7.97;58.40;101598.81;144992;586;6002;-82
2021/12/18 09:51:51;;;;;;;4.85;2.33;;;;;;;7.91;58.08;101565.75;144992;676;6002;-80
2021/12/18 09:54:19;;;;;;;2.22;1.90;;;;;;;7.82;57.11;101565.25;144992;625;6002;-80
2021/12/18 09:56:46;;;;;;;4.35;2.10;;;;;;;7.92;55.88;101562.37;144992;610;6002;-81
2021/12/18 09:59:13;;;;;;;3.20;2.20;;;;;;;8.04;55.26;101576.75;144991;579;6002;-83
2021/12/18 10:01:40;;;;;;;3.05;2.00;;;;;;;8.15;55.04;101570.47;144992;625;6002;-81
2021/12/18 10:04:25;;;;;;;3.08;2.00;;;;;;;8.25;53.78;101574.41;144992;589;6002;-83
2021/12/18 10:06:51;;;;;;;3.58;2.40;;;;;;;8.20;52.34;101553.47;144992;652;6002;-81
2021/12/18 10:09:37;;;;;;;4.93;2.33;;;;;;;8.25;52.36;101556.31;144992;603;6002;-81
2021/12/18 10:12:16;;;;;;;3.53;2.20;;;;;;;8.25;53.21;101564.94;144992;631;6004;-80
2021/12/18 10:14:54;;;;;;;4.18;2.30;;;;;;;8.27;54.17;101565.03;144992;572;6004;-80
2021/12/18 10:17:36;;;;;;;3.67;2.33;;;;;;;8.24;53.70;101558.03;144992;565;6004;-81
2021/12/18 10:20:17;;;;;;;2.22;1.92;;;;;;;8.24;53.53;101562.28;144992;571;6004;-80
2021/12/18 10:22:50;;;;;;;2.80;2.12;;;;;;;8.29;50.63;101566.91;144992;618;6004;-80
2021/12/18 10:25:25;;;;;;;4.85;2.67;;;;;;;8.36;51.98;101568.97;144992;650;6004;-83
2021/12/18 10:28:04;;;;;;;3.85;2.80;;;;;;;8.54;51.71;101555.25;144992;570;6004;-81
2021/12/18 10:30:31;;;;;;;4.40;2.33;;;;;;;8.47;50.08;101550.59;144992;578;6004;-82
2021/12/18 10:33:05;;;;;;;2.92;2.12;;;;;;;8.47;50.41;101555.78;144992;607;6004;-83
2021/12/18 10:35:40;;;;;;;2.15;1.80;;;;;;;8.45;50.21;101560.88;144992;580;6004;-81
2021/12/18 10:38:08;;;;;;;3.55;2.12;;;;;;;8.47;50.46;101577.34;144992;641;6004;-81
2021/12/18 10:40:47;;;;;;;3.37;2.40;;;;;;;8.50;50.70;101576.63;144992;659;6004;-83
2021/12/18 10:43:15;;;;;;;4.15;2.47;;;;;;;8.65;51.09;101594.62;144992;610;6004;-83
2021/12/18 10:45:41;;;;;;;3.33;2.60;;;;;;;8.63;52.37;101601.44;144992;601;6004;-82
2021/12/18 10:48:15;;;;;;;2.80;2.37;;;;;;;8.74;53.19;101618.41;144992;574;6004;-84
2021/12/18 10:50:53;;;;;;;6.15;3.87;;;;;;;8.78;53.29;101607.41;144992;616;6004;-83
2021/12/18 10:53:29;;;;;;;3.15;2.40;;;;;;;8.63;55.02;101602.31;144992;598;6004;-84
2021/12/18 10:56:01;;;;;;;5.07;3.10;;;;;;;8.54;54.52;101607.00;144992;572;6004;-85
2021/12/18 10:58:35;;;;;;;3.65;2.40;;;;;;;8.49;53.53;101598.12;144992;594;6005;-85
2021/12/18 11:01:09;;;;;;;3.12;2.30;;;;;;;8.40;53.49;101587.25;144992;588;6004;-83
2021/12/18 11:03:46;;;;;;;3.53;2.03;;;;;;;8.38;53.92;101574.25;144992;581;6004;-82
2021/12/18 11:06:17;;;;;;;4.80;2.28;;;;;;;8.27;53.26;101558.19;144992;567;6005;-81
2021/12/18 11:08:59;;;;;;;3.20;2.33;;;;;;;8.26;52.64;101568.44;144991;562;6000;-82
2021/12/18 11:14:26;;;;;;;4.80;2.42;;;;;;;8.35;52.80;101548.22;144992;575;6004;-83
2021/12/18 11:16:56;;;;;;;4.20;2.20;;;;;;;8.39;52.42;101567.38;144992;690;6004;-82
2021/12/18 11:19:26;;;;;;;3.92;2.00;;;;;;;8.35;52.25;101554.28;144992;576;6004;-82
2021/12/18 11:21:55;;;;;;;5.70;2.20;;;;;;;8.43;51.75;101556.38;144992;611;6004;-82
2021/12/18 11:24:29;;;;;;;2.97;2.30;;;;;;;8.45;51.45;101562.56;144992;575;6004;-82
2021/12/18 11:27:10;;;;;;;6.10;2.78;;;;;;;8.48;51.78;101583.44;144992;561;6004;-81
2021/12/18 11:29:46;;;;;;;4.03;2.20;;;;;;;8.50;50.67;101574.91;144992;738;6004;-82
2021/12/18 11:32:16;;;;;;;2.65;2.20;;;;;;;8.53;50.24;101576.78;144992;571;6004;-82
2021/12/18 11:34:44;;;;;;;5.90;2.37;;;;;;;8.47;51.02;101564.41;144992;571;6004;-82
2021/12/18 11:37:13;;;;;;;2.85;2.45;;;;;;;8.48;50.49;101573.09;144992;576;6004;-83
2021/12/18 11:39:43;;;;;;;3.70;2.80;;;;;;;8.45;49.97;101585.87;144992;670;6004;-85
2021/12/18 11:42:13;;;;;;;5.12;2.37;;;;;;;8.42;49.56;101580.50;144992;586;6004;-83
2021/12/18 11:44:42;;;;;;;6.55;2.87;;;;;;;8.55;50.96;101608.81;144992;604;6004;-84
2021/12/18 11:47:35;;;;;;;4.00;2.22;;;;;;;8.56;49.95;101576.03;144992;650;6004;-84
2021/12/18 11:50:21;;;;;;;3.53;2.00;;;;;;;8.53;48.38;101571.63;144992;572;6005;-84
2021/12/18 11:53:20;;;;;;;3.85;2.55;;;;;;;8.49;48.10;101592.97;144992;589;6004;-82
2021/12/18 11:56:05;;;;;;;4.18;2.90;;;;;;;8.63;48.10;101578.16;144992;606;6002;-83
2021/12/18 11:58:34;;;;;;;4.72;2.80;;;;;;;8.73;47.23;101603.69;144992;625;6004;-84
2021/12/18 12:01:12;;;;;;;4.22;2.70;;;;;;;8.75;47.19;101581.38;144992;602;6004;-82
2021/12/18 12:03:44;;;;;;;3.15;2.25;;;;;;;8.77;47.82;101579.75;144992;585;6004;-84
2021/12/18 12:06:41;;;;;;;3.95;2.33;;;;;;;8.81;48.08;101592.03;144992;600;6004;-83
2021/12/18 12:09:35;;;;;;;4.20;2.53;;;;;;;8.81;48.12;101593.72;144992;563;6002;-83
2021/12/18 12:12:07;;;;;;;3.35;2.78;;;;;;;8.83;48.58;101602.47;144992;704;6004;-81
2021/12/18 12:14:43;;;;;;;3.00;2.00;;;;;;;9.05;48.19;101626.06;144992;572;6004;-83
2021/12/18 12:17:25;;;;;;;5.47;2.70;;;;;;;8.86;48.16;101623.31;144992;597;6004;-84
2021/12/18 12:19:56;;;;;;;4.25;2.65;;;;;;;8.50;51.93;101631.84;144992;586;6004;-84
2021/12/18 12:22:48;;;;;;;2.65;2.28;;;;;;;8.25;55.10;101628.75;144992;591;6004;-86
2021/12/18 12:25:18;;;;;;;4.85;2.97;;;;;;;8.23;55.86;101636.41;144992;567;6004;-83
2021/12/18 12:28:04;;;;;;;4.07;3.00;;;;;;;8.29;55.93;101635.88;144992;588;6004;-83
2021/12/18 12:30:53;;;;;;;6.55;3.72;;;;;;;8.53;54.34;101638.91;144992;571;6004;-84
2021/12/18 12:33:27;;;;;;;5.05;2.92;;;;;;;8.37;56.74;101660.44;144992;604;6002;-81
2021/12/18 12:36:06;;;;;;;3.50;2.35;;;;;;;8.39;54.38;101668.28;144992;570;6002;-83